Terminal Aerodrome Forecast
Issued by NWS

Home | Current Version | Previous Version | Text Only | Print | Product List | Glossary On
Versions: 1 2 3 4 5 6 7 8 9 10 11 12 13 14 15 16 17 18 19 20 21 22 23 24 25 26 27 28 29 30 31 32
000
FTUS45 KCYS 010500
TAFLAR
TAF
KLAR 010540Z 0106/0206 23010KT P6SM BKN100 BKN150
     FM011800 32012KT 5SM -SHRA VCTS BKN040 OVC080CB
     FM012300 34008KT P6SM VCSH BKN035 OVC070
     FM020200 35007KT P6SM BKN025=

USA.gov is the U.S. government's official web portal to all federal, state and local government web resources and services.